createdAt,value
2022-09-02T00:01:50.335Z,77.86
2022-09-02T00:05:13.559Z,77.64
2022-09-02T00:08:35.628Z,77.96
2022-09-02T00:11:58.239Z,77.41
2022-09-02T00:15:20.274Z,77.57
2022-09-02T00:18:44.952Z,77.50
2022-09-02T00:22:09.373Z,77.14
2022-09-02T00:25:31.170Z,77.83
2022-09-02T00:28:56.449Z,78.35
2022-09-02T00:32:18.451Z,78.11
2022-09-02T00:35:41.177Z,78.04
2022-09-02T00:39:08.871Z,77.80
2022-09-02T00:42:30.613Z,77.56
2022-09-02T00:45:53.633Z,77.79
2022-09-02T00:49:19.073Z,77.91
2022-09-02T00:52:44.678Z,77.74
2022-09-02T00:56:13.126Z,77.04
2022-09-02T00:59:44.859Z,77.39
2022-09-02T01:03:10.520Z,77.15
2022-09-02T01:06:33.179Z,77.68
2022-09-02T01:09:56.503Z,77.21
2022-09-02T01:13:23.166Z,77.73
2022-09-02T01:16:48.549Z,77.60
2022-09-02T01:20:21.166Z,77.11
2022-09-02T01:23:49.466Z,77.54
2022-09-02T01:27:16.222Z,77.68
2022-09-02T01:30:42.210Z,78.47
2022-09-02T01:34:06.676Z,78.06
2022-09-02T01:37:28.706Z,77.71
2022-09-02T01:40:52.699Z,77.82
2022-09-02T01:44:16.165Z,78.14
2022-09-02T01:47:38.714Z,77.60
2022-09-02T01:51:04.611Z,77.77
2022-09-02T01:54:26.574Z,77.58
2022-09-02T01:57:49.796Z,77.54
2022-09-02T02:01:12.162Z,77.94
2022-09-02T02:04:35.795Z,78.08
2022-09-02T02:08:00.498Z,78.35
2022-09-02T02:11:25.888Z,78.97
2022-09-02T02:14:53.775Z,79.27
2022-09-02T02:18:17.311Z,78.63
2022-09-02T02:21:39.290Z,79.21
2022-09-02T02:25:00.969Z,79.19
2022-09-02T02:28:24.769Z,79.69
2022-09-02T02:31:49.289Z,79.16
2022-09-02T02:35:12.202Z,79.02
2022-09-02T02:38:34.892Z,79.62
2022-09-02T02:41:56.585Z,79.99
2022-09-02T02:45:18.334Z,80.13
2022-09-02T02:48:41.289Z,79.83
2022-09-02T02:52:03.289Z,79.81
2022-09-02T02:55:26.595Z,79.44
2022-09-02T02:58:48.482Z,79.63
2022-09-02T03:02:10.644Z,79.77
2022-09-02T03:05:35.709Z,79.76
2022-09-02T03:08:59.781Z,79.99
2022-09-02T03:12:23.749Z,79.96
2022-09-02T03:15:45.631Z,79.08
2022-09-02T03:19:07.403Z,79.68
2022-09-02T03:22:31.195Z,79.00
2022-09-02T03:25:53.185Z,79.49
2022-09-02T03:29:27.930Z,79.36
2022-09-02T03:32:51.971Z,79.92
2022-09-02T03:36:22.907Z,79.57
2022-09-02T03:39:46.931Z,79.27
2022-09-02T03:43:09.159Z,79.80
2022-09-02T03:46:31.837Z,80.13
2022-09-02T03:49:54.295Z,80.37
2022-09-02T03:53:20.140Z,79.68
2022-09-02T03:56:47.149Z,79.93
2022-09-02T04:00:17.075Z,79.85
2022-09-02T04:03:40.869Z,79.46
2022-09-02T04:07:02.504Z,79.42
2022-09-02T04:10:24.812Z,79.64
2022-09-02T04:13:50.848Z,79.66
2022-09-02T04:17:15.679Z,79.82
2022-09-02T04:20:38.958Z,79.86
2022-09-02T04:24:00.588Z,80.07
2022-09-02T04:27:23.302Z,80.19
2022-09-02T04:30:46.588Z,79.84
2022-09-02T04:34:09.466Z,79.64
2022-09-02T04:37:33.338Z,79.85
2022-09-02T04:40:55.406Z,79.77
2022-09-02T04:44:17.941Z,79.74
2022-09-02T04:47:47.869Z,79.79
2022-09-02T04:51:12.665Z,79.61
2022-09-02T04:54:40.754Z,80.08
2022-09-02T04:58:03.939Z,79.88
2022-09-02T05:01:30.794Z,80.25
2022-09-02T05:04:55.670Z,80.93
2022-09-02T05:08:23.994Z,80.15
2022-09-02T05:11:48.841Z,79.94
2022-09-02T05:15:12.770Z,80.83
2022-09-02T05:18:35.051Z,80.68
2022-09-02T05:21:59.320Z,80.82
2022-09-02T05:33:59.471Z,80.78
2022-09-02T05:37:25.654Z,81.22
2022-09-02T05:40:47.701Z,81.11
2022-09-02T05:44:09.702Z,81.36
2022-09-02T05:47:34.430Z,80.87
2022-09-02T05:50:57.883Z,81.23
2022-09-02T05:54:28.684Z,81.00
2022-09-02T05:57:52.454Z,81.47
2022-09-02T06:01:16.851Z,81.02
2022-09-02T06:04:41.254Z,81.32
2022-09-02T06:08:05.682Z,80.68
2022-09-02T06:11:29.913Z,80.11
2022-09-02T06:14:52.191Z,80.51
2022-09-02T06:18:16.963Z,80.06
2022-09-02T06:21:46.437Z,79.67
2022-09-02T06:25:09.381Z,79.21
2022-09-02T06:28:33.932Z,78.68
2022-09-02T06:31:55.972Z,77.94
2022-09-02T06:35:19.916Z,77.00
2022-09-02T06:38:45.971Z,76.27
2022-09-02T06:42:09.070Z,75.79
2022-09-02T06:45:42.702Z,74.75
2022-09-02T06:49:07.257Z,74.03
2022-09-02T06:52:29.989Z,73.94
2022-09-02T06:55:52.698Z,73.87
2022-09-02T06:59:16.171Z,73.32
2022-09-02T07:02:44.029Z,72.96
2022-09-02T07:06:09.516Z,73.14
2022-09-02T07:09:33.037Z,72.22
2022-09-02T07:13:05.920Z,71.80
2022-09-02T07:16:28.584Z,71.67
2022-09-02T07:19:55.999Z,71.78
2022-09-02T07:23:18.896Z,71.75
2022-09-02T07:26:41.658Z,71.82
2022-09-02T07:30:04.980Z,72.24
2022-09-02T07:33:27.319Z,72.21
2022-09-02T07:36:52.744Z,71.72
2022-09-02T07:40:17.283Z,71.16
2022-09-02T07:43:41.215Z,70.56
2022-09-02T07:47:12.526Z,69.55
2022-09-02T07:50:38.403Z,69.85
2022-09-02T07:54:06.183Z,69.46
2022-09-02T07:57:28.040Z,69.93
2022-09-02T08:00:52.707Z,69.40
2022-09-02T08:04:14.692Z,69.16
2022-09-02T08:07:39.282Z,68.96
2022-09-02T08:11:03.822Z,68.34
2022-09-02T08:14:29.338Z,68.15
2022-09-02T08:17:52.478Z,67.50
2022-09-02T08:21:14.788Z,67.66
2022-09-02T08:24:39.194Z,67.00
2022-09-02T08:28:02.615Z,66.38
2022-09-02T08:31:24.332Z,66.14
2022-09-02T08:34:46.410Z,65.34
2022-09-02T08:38:08.229Z,64.57
2022-09-02T08:41:34.779Z,63.45
2022-09-02T08:45:01.550Z,63.31
2022-09-02T08:48:30.146Z,63.23
2022-09-02T08:51:56.264Z,62.18
2022-09-02T08:55:28.362Z,62.32
2022-09-02T08:58:56.562Z,61.29
2022-09-02T09:02:27.845Z,60.57
2022-09-02T09:06:00.786Z,60.36
2022-09-02T09:09:32.701Z,60.56
2022-09-02T09:13:12.970Z,59.83
2022-09-02T09:16:42.137Z,59.09
2022-09-02T09:20:12.280Z,59.11
2022-09-02T09:23:35.942Z,58.65
2022-09-02T09:26:58.939Z,57.84
2022-09-02T09:30:20.955Z,57.51
2022-09-02T09:33:56.417Z,57.38
2022-09-02T09:37:35.237Z,57.04
2022-09-02T09:41:13.737Z,57.64
2022-09-02T09:44:45.688Z,56.63
2022-09-02T09:48:31.561Z,55.09
2022-09-02T09:51:56.274Z,55.00
2022-09-02T09:55:24.970Z,54.04
2022-09-02T09:58:49.522Z,52.12
2022-09-02T10:02:22.183Z,52.68
2022-09-02T10:05:44.263Z,52.67
2022-09-02T10:09:09.072Z,52.14
2022-09-02T10:12:34.628Z,50.53
2022-09-02T10:16:28.001Z,51.41
2022-09-02T10:19:56.150Z,50.42
2022-09-02T10:23:32.338Z,50.60
2022-09-02T10:26:58.731Z,49.89
2022-09-02T10:30:23.902Z,48.99
2022-09-02T10:33:58.337Z,49.35
2022-09-02T10:37:23.256Z,49.07
2022-09-02T10:40:47.205Z,48.31
2022-09-02T10:44:35.166Z,48.76
2022-09-02T10:48:13.356Z,48.08
2022-09-02T10:51:42.062Z,47.98
2022-09-02T10:55:14.786Z,48.12
2022-09-02T10:58:43.819Z,46.72
2022-09-02T11:02:15.395Z,47.29
2022-09-02T11:05:48.269Z,45.43
2022-09-02T11:09:16.590Z,44.85
2022-09-02T11:12:43.013Z,44.60
2022-09-02T11:16:15.338Z,44.99
2022-09-02T11:19:43.611Z,43.84
2022-09-02T11:23:18.000Z,43.49
2022-09-02T11:26:43.974Z,44.11
2022-09-02T11:30:09.927Z,43.69
2022-09-02T11:33:43.209Z,42.18
2022-09-02T11:37:08.417Z,42.40
2022-09-02T11:40:40.128Z,42.06
2022-09-02T11:44:14.629Z,42.07
2022-09-02T11:47:57.290Z,41.47
2022-09-02T11:51:37.938Z,41.19
2022-09-02T11:55:12.011Z,40.99
2022-09-02T11:58:41.202Z,40.91
2022-09-02T12:02:03.831Z,40.02
2022-09-02T12:05:52.615Z,40.11
2022-09-02T12:13:08.263Z,39.67
2022-09-02T12:16:42.762Z,39.87
2022-09-02T12:20:06.174Z,40.90
2022-09-02T12:24:04.657Z,40.04
2022-09-02T12:27:29.070Z,40.22
2022-09-02T12:31:16.690Z,40.44
2022-09-02T12:35:09.130Z,39.52
2022-09-02T12:38:33.294Z,38.61
2022-09-02T12:42:03.008Z,37.40
2022-09-02T12:45:29.410Z,36.76
2022-09-02T12:49:00.739Z,37.27
2022-09-02T12:52:46.006Z,38.37
2022-09-02T12:56:21.654Z,38.51
2022-09-02T12:59:44.582Z,38.60
2022-09-02T13:03:30.601Z,38.84
2022-09-02T13:07:25.764Z,38.39
2022-09-02T13:10:58.262Z,38.06
2022-09-02T13:14:53.944Z,37.99
2022-09-02T13:19:01.151Z,38.02
2022-09-02T13:22:45.130Z,38.42
2022-09-02T13:26:49.759Z,37.79
2022-09-02T13:30:22.042Z,37.26
2022-09-02T13:33:45.455Z,37.12
2022-09-02T13:37:10.519Z,36.78
2022-09-02T13:40:34.554Z,36.63
2022-09-02T13:44:11.619Z,36.32
2022-09-02T13:47:33.405Z,36.45
2022-09-02T13:50:57.184Z,36.91
2022-09-02T13:54:28.676Z,36.67
2022-09-02T13:57:58.978Z,37.31
2022-09-02T14:01:25.892Z,38.10
2022-09-02T14:04:49.014Z,37.85
2022-09-02T14:08:15.194Z,38.39
2022-09-02T14:11:42.745Z,38.37
2022-09-02T14:15:06.878Z,38.41
2022-09-02T14:18:30.219Z,37.87
2022-09-02T14:21:56.057Z,38.81
2022-09-02T14:25:18.374Z,37.07
2022-09-02T14:28:40.353Z,36.44
2022-09-02T14:32:14.155Z,36.45
2022-09-02T14:35:37.306Z,36.39
2022-09-02T14:39:12.449Z,36.69
2022-09-02T14:42:34.521Z,35.98
2022-09-02T14:46:07.110Z,36.09
2022-09-02T14:49:32.039Z,36.01
2022-09-02T14:53:00.458Z,36.54
2022-09-02T14:56:50.903Z,36.55
2022-09-02T15:00:15.056Z,36.48
2022-09-02T15:03:39.198Z,36.42
2022-09-02T15:07:02.472Z,35.93
2022-09-02T15:10:27.923Z,35.84
2022-09-02T15:13:49.715Z,35.39
2022-09-02T15:17:15.057Z,34.18
2022-09-02T15:20:36.943Z,34.24
2022-09-02T15:23:59.082Z,34.28
2022-09-02T15:27:22.407Z,32.42
2022-09-02T15:30:44.405Z,31.78
2022-09-02T15:34:06.285Z,30.66
2022-09-02T15:37:28.601Z,30.59
2022-09-02T15:40:50.554Z,29.80
2022-09-02T15:44:14.293Z,28.91
2022-09-02T15:47:36.949Z,28.54
2022-09-02T15:50:58.851Z,28.54
2022-09-02T15:54:22.942Z,28.57
2022-09-02T15:57:44.718Z,28.65
2022-09-02T16:01:08.620Z,28.64
2022-09-02T16:04:31.422Z,28.92
2022-09-02T16:07:55.228Z,28.57
2022-09-02T16:11:17.354Z,28.76
2022-09-02T16:14:39.245Z,29.01
2022-09-02T16:18:02.486Z,29.30
2022-09-02T16:21:25.211Z,30.08
2022-09-02T16:24:47.199Z,30.52
2022-09-02T16:28:09.204Z,30.61
2022-09-02T16:31:34.321Z,30.47
2022-09-02T16:34:58.257Z,30.36
2022-09-02T16:38:20.285Z,30.19
2022-09-02T16:41:44.929Z,30.19
2022-09-02T16:45:08.553Z,30.32
2022-09-02T16:48:35.030Z,30.49
2022-09-02T16:51:58.748Z,30.84
2022-09-02T16:55:21.098Z,31.87
2022-09-02T16:58:43.051Z,32.09
2022-09-02T17:02:05.404Z,32.53
2022-09-02T17:05:27.239Z,32.63
2022-09-02T17:08:50.614Z,33.45
2022-09-02T17:12:12.559Z,33.85
2022-09-02T17:15:34.395Z,34.52
2022-09-02T17:18:56.558Z,34.84
2022-09-02T17:22:18.735Z,34.95
2022-09-02T17:25:46.888Z,35.75
2022-09-02T17:29:17.385Z,36.08
2022-09-02T17:32:56.299Z,36.50
2022-09-02T17:36:19.434Z,36.64
2022-09-02T17:39:42.150Z,37.41
2022-09-02T17:43:05.779Z,37.85
2022-09-02T17:46:27.665Z,38.22
2022-09-02T17:49:50.181Z,39.12
2022-09-02T17:53:12.151Z,39.62
2022-09-02T17:56:52.150Z,40.73
2022-09-02T18:00:17.525Z,43.43
2022-09-02T18:03:51.639Z,44.31
2022-09-02T18:07:23.862Z,45.71
2022-09-02T18:10:56.676Z,46.44
2022-09-02T18:14:34.925Z,47.20
2022-09-02T18:17:58.107Z,47.77
2022-09-02T18:21:28.683Z,48.51
2022-09-02T18:25:04.110Z,48.53
2022-09-02T18:28:45.364Z,48.32
2022-09-02T18:32:19.262Z,49.06
2022-09-02T18:35:51.540Z,49.10
2022-09-02T18:39:27.098Z,49.25
2022-09-02T18:42:57.964Z,49.45
2022-09-02T18:46:22.508Z,49.80
2022-09-02T18:49:46.920Z,50.44
2022-09-02T18:53:13.877Z,50.38
2022-09-02T18:56:38.807Z,51.22
2022-09-02T19:00:06.118Z,51.78
2022-09-02T19:03:35.732Z,51.80
2022-09-02T19:07:18.022Z,52.21
2022-09-02T19:10:41.571Z,52.15
2022-09-02T19:14:19.754Z,52.14
2022-09-02T19:17:42.365Z,53.00
2022-09-02T19:21:05.142Z,53.60
2022-09-02T19:24:31.566Z,53.87
2022-09-02T19:27:56.785Z,54.69
2022-09-02T19:31:22.830Z,55.22
2022-09-02T19:34:47.233Z,55.97
2022-09-02T19:38:09.361Z,56.27
2022-09-02T19:41:31.376Z,56.35
2022-09-02T19:44:55.088Z,57.41
2022-09-02T19:48:17.655Z,57.51
2022-09-02T19:51:39.762Z,58.14
2022-09-02T19:55:03.100Z,58.86
2022-09-02T19:58:26.878Z,58.87
2022-09-02T20:01:50.604Z,59.34
2022-09-02T20:05:14.856Z,59.52
2022-09-02T20:08:36.870Z,60.07
2022-09-02T20:11:58.929Z,60.37
2022-09-02T20:15:20.878Z,60.09
2022-09-02T20:18:46.817Z,60.61
2022-09-02T20:22:09.221Z,60.73
2022-09-02T20:25:45.154Z,61.35
2022-09-02T20:29:32.578Z,62.28
2022-09-02T20:32:58.954Z,62.37
2022-09-02T20:36:33.243Z,63.14
2022-09-02T20:40:11.248Z,63.58
2022-09-02T20:44:07.327Z,63.33
2022-09-02T20:47:51.378Z,63.96
2022-09-02T20:51:20.042Z,63.71
2022-09-02T20:54:49.347Z,64.14
2022-09-02T20:58:22.290Z,64.26
2022-09-02T21:01:45.863Z,64.40
2022-09-02T21:05:15.273Z,65.15
2022-09-02T21:08:55.238Z,65.33
2022-09-02T21:12:34.827Z,65.63
2022-09-02T21:16:01.853Z,64.96
2022-09-02T21:19:34.421Z,65.47
2022-09-02T21:23:01.965Z,65.88
2022-09-02T21:26:37.251Z,65.88
2022-09-02T21:30:06.139Z,65.84
2022-09-02T21:33:32.914Z,65.87
2022-09-02T21:36:56.675Z,66.36
2022-09-02T21:40:20.586Z,66.67
2022-09-02T21:43:55.883Z,66.97
2022-09-02T21:47:25.557Z,67.09
2022-09-02T21:50:58.008Z,67.35
2022-09-02T21:54:36.222Z,67.22
2022-09-02T21:58:22.156Z,67.14
2022-09-02T22:01:54.862Z,67.11
2022-09-02T22:05:29.892Z,67.15
2022-09-02T22:09:00.345Z,67.51
2022-09-02T22:12:26.291Z,67.85
2022-09-02T22:15:58.021Z,68.05
2022-09-02T22:19:23.182Z,68.07
2022-09-02T22:22:53.259Z,68.32
2022-09-02T22:26:28.803Z,68.33
2022-09-02T22:29:55.106Z,68.58
2022-09-02T22:33:24.053Z,68.66
2022-09-02T22:37:01.594Z,68.69
2022-09-02T22:40:29.094Z,68.88
2022-09-02T22:43:59.151Z,68.60
2022-09-02T22:47:38.956Z,68.73
2022-09-02T22:51:22.793Z,68.89
2022-09-02T22:54:44.956Z,68.92
2022-09-02T22:58:24.926Z,68.91
2022-09-02T23:01:57.930Z,68.90
2022-09-02T23:05:47.770Z,69.20
2022-09-02T23:09:11.179Z,69.54
2022-09-02T23:12:41.292Z,69.29
2022-09-02T23:16:15.708Z,69.35
2022-09-02T23:19:49.108Z,70.36
2022-09-02T23:23:27.853Z,69.83
2022-09-02T23:26:59.151Z,69.86
2022-09-02T23:30:21.142Z,69.55
2022-09-02T23:33:54.126Z,69.55
2022-09-02T23:37:30.643Z,69.61
2022-09-02T23:41:00.713Z,69.90
2022-09-02T23:44:22.959Z,69.67
2022-09-02T23:47:54.681Z,69.85
2022-09-02T23:51:24.007Z,69.90
2022-09-02T23:55:00.333Z,69.63
2022-09-02T23:58:36.418Z,69.75
